Time;durP1;ratioP1;P1;durP2;ratioP2;P2;SDS_P1;SDS_P2;PMS_P1;PMS_P2;Temp;Humidity;BMP_temperature;BMP_pressure;BME280_temperature;BME280_humidity;BME280_pressure;Samples;Min_cycle;Max_cycle;Signal;HPM_P1;HPM_P2
2024/01/30 00:01:40;;;;;;;17.85;11.98;;;6.60;99.90;;;;;;5033328;28;20100;-34
2024/01/30 00:04:06;;;;;;;16.02;11.65;;;6.60;99.90;;;;;;5023422;28;20460;-33
2024/01/30 00:06:32;;;;;;;17.40;11.88;;;6.60;99.90;;;;;;5034955;28;20041;-33
2024/01/30 00:08:57;;;;;;;16.35;11.98;;;6.50;99.90;;;;;;5023498;28;20132;-34
2024/01/30 00:11:25;;;;;;;16.13;11.50;;;6.50;99.90;;;;;;5029059;28;20049;-34
2024/01/30 00:13:52;;;;;;;17.23;11.50;;;6.50;99.90;;;;;;5030934;28;20144;-34
2024/01/30 00:16:24;;;;;;;15.88;11.52;;;6.50;99.90;;;;;;5015218;28;20045;-33
2024/01/30 00:18:54;;;;;;;19.45;11.93;;;6.50;99.90;;;;;;5029847;28;20060;-36
2024/01/30 00:21:20;;;;;;;18.17;11.93;;;6.40;99.90;;;;;;5035857;28;20047;-35
2024/01/30 00:23:46;;;;;;;18.42;12.00;;;6.40;99.90;;;;;;5033071;28;20141;-34
2024/01/30 00:26:12;;;;;;;16.25;10.23;;;6.30;99.90;;;;;;5031561;28;20052;-33
2024/01/30 00:28:40;;;;;;;16.55;11.60;;;6.30;99.90;;;;;;5029176;28;20135;-33
2024/01/30 00:31:06;;;;;;;18.85;12.68;;;6.30;99.90;;;;;;5030733;28;20176;-34
2024/01/30 00:33:32;;;;;;;18.05;12.05;;;6.30;99.90;;;;;;5027322;28;20188;-34
2024/01/30 00:35:57;;;;;;;19.45;12.55;;;6.30;99.90;;;;;;5030678;28;20060;-34
2024/01/30 00:38:23;;;;;;;15.75;10.95;;;6.30;99.90;;;;;;5027113;28;20153;-34
2024/01/30 00:40:49;;;;;;;17.27;11.48;;;6.30;99.90;;;;;;5025473;28;20053;-35
2024/01/30 00:43:15;;;;;;;14.80;11.23;;;6.30;99.90;;;;;;5029494;28;20053;-34
2024/01/30 00:45:41;;;;;;;17.05;12.02;;;6.30;99.90;;;;;;5029347;28;20716;-33
2024/01/30 00:48:07;;;;;;;17.25;11.55;;;6.30;99.90;;;;;;5027386;28;20054;-34
2024/01/30 00:50:33;;;;;;;17.05;11.60;;;6.30;99.90;;;;;;5030020;28;20168;-34
2024/01/30 00:52:58;;;;;;;18.65;12.02;;;6.30;99.90;;;;;;5007559;28;20063;-34
2024/01/30 00:55:24;;;;;;;16.60;12.35;;;6.30;99.90;;;;;;5023362;28;20395;-34
2024/01/30 00:57:50;;;;;;;17.23;11.73;;;6.30;99.90;;;;;;5027980;28;20376;-33
2024/01/30 01:00:17;;;;;;;16.17;11.82;;;6.30;99.90;;;;;;5027646;28;20486;-34
2024/01/30 01:02:43;;;;;;;16.67;11.52;;;6.30;99.90;;;;;;5023089;28;20049;-34
2024/01/30 01:05:09;;;;;;;18.42;11.38;;;6.30;99.90;;;;;;5030711;28;20045;-34
2024/01/30 01:07:35;;;;;;;18.27;11.95;;;6.20;99.90;;;;;;5028082;28;20044;-34
2024/01/30 01:10:01;;;;;;;17.05;11.85;;;6.20;99.90;;;;;;5026928;28;20502;-34
2024/01/30 01:12:26;;;;;;;16.70;11.77;;;6.20;99.90;;;;;;5030228;28;20072;-34
2024/01/30 01:14:52;;;;;;;15.60;11.02;;;6.20;99.90;;;;;;5027779;28;20053;-34
2024/01/30 01:17:18;;;;;;;17.48;11.88;;;6.20;99.90;;;;;;5027553;28;20052;-33
2024/01/30 01:19:44;;;;;;;18.95;12.25;;;6.10;99.90;;;;;;5004674;28;20064;-34
2024/01/30 01:22:10;;;;;;;16.45;11.55;;;6.20;99.90;;;;;;5026232;28;20442;-34
2024/01/30 01:24:36;;;;;;;16.70;10.38;;;6.10;99.90;;;;;;5025039;28;20057;-34
2024/01/30 01:27:02;;;;;;;16.58;11.90;;;6.10;99.90;;;;;;5031767;28;20053;-33
2024/01/30 01:29:30;;;;;;;18.25;11.65;;;6.10;99.90;;;;;;5023557;28;20061;-34
2024/01/30 01:31:57;;;;;;;16.75;12.15;;;6.10;99.90;;;;;;5028264;28;20054;-34
2024/01/30 01:34:25;;;;;;;16.08;11.60;;;6.10;99.90;;;;;;5033781;28;20053;-34
2024/01/30 01:36:51;;;;;;;17.45;11.88;;;6.10;99.90;;;;;;5032497;28;20133;-34
2024/01/30 01:39:18;;;;;;;17.77;11.85;;;6.10;99.90;;;;;;5029869;28;20145;-34
2024/01/30 01:41:43;;;;;;;18.50;11.70;;;6.10;99.90;;;;;;5027006;28;20045;-35
2024/01/30 01:44:09;;;;;;;16.60;11.20;;;6.10;99.90;;;;;;5031125;28;20060;-34
2024/01/30 01:46:35;;;;;;;15.68;11.48;;;6.10;99.90;;;;;;5031442;28;20060;-34
2024/01/30 01:49:05;;;;;;;16.95;11.20;;;6.00;99.90;;;;;;5032300;28;20053;-34
2024/01/30 01:51:33;;;;;;;17.27;11.93;;;6.10;99.90;;;;;;5031855;28;20049;-34
2024/01/30 01:54:03;;;;;;;15.32;11.13;;;6.10;99.90;;;;;;5032406;28;20045;-34
2024/01/30 01:56:30;;;;;;;18.98;12.15;;;6.10;99.90;;;;;;5036708;28;20057;-35
2024/01/30 01:59:00;;;;;;;18.67;11.73;;;6.10;99.90;;;;;;5034571;28;20056;-34
2024/01/30 02:01:28;;;;;;;16.88;12.30;;;6.20;99.90;;;;;;5030721;28;20251;-34
2024/01/30 02:03:54;;;;;;;17.45;10.90;;;6.20;99.90;;;;;;5032031;28;20590;-34
2024/01/30 02:06:20;;;;;;;17.77;11.57;;;6.10;99.90;;;;;;5032750;28;20049;-35
2024/01/30 02:08:46;;;;;;;16.75;11.18;;;6.10;99.90;;;;;;5030117;28;20053;-35
2024/01/30 02:11:11;;;;;;;17.63;11.52;;;6.10;99.90;;;;;;5032924;28;20056;-35
2024/01/30 02:13:37;;;;;;;15.23;11.00;;;6.10;99.90;;;;;;5033465;28;20053;-34
2024/01/30 02:16:03;;;;;;;18.98;11.13;;;6.10;99.90;;;;;;5036563;28;20410;-35
2024/01/30 02:18:29;;;;;;;17.42;10.45;;;6.00;99.90;;;;;;5030349;28;20061;-35
2024/01/30 02:20:58;;;;;;;15.20;10.38;;;6.00;99.90;;;;;;5030710;28;20124;-35
2024/01/30 02:23:25;;;;;;;15.00;10.27;;;5.90;99.90;;;;;;5030261;28;20053;-35
2024/01/30 02:25:52;;;;;;;14.40;10.65;;;5.90;99.90;;;;;;5030298;28;20463;-34
2024/01/30 02:28:19;;;;;;;15.90;10.20;;;5.90;99.90;;;;;;5029669;28;20057;-35
2024/01/30 02:30:46;;;;;;;16.45;10.90;;;5.80;99.90;;;;;;5030514;28;20079;-35
2024/01/30 02:33:12;;;;;;;15.70;10.95;;;5.90;99.90;;;;;;5031916;28;20756;-35
2024/01/30 02:35:38;;;;;;;13.85;10.35;;;5.80;99.90;;;;;;5025742;28;20049;-35
2024/01/30 02:38:04;;;;;;;15.98;10.93;;;5.90;99.90;;;;;;5025436;28;20053;-35
2024/01/30 02:40:30;;;;;;;16.00;10.63;;;5.90;99.90;;;;;;5026855;28;20053;-35
2024/01/30 02:42:57;;;;;;;14.43;10.38;;;5.90;99.90;;;;;;5021902;28;20132;-35
2024/01/30 02:45:23;;;;;;;16.02;10.50;;;5.90;99.90;;;;;;5033567;28;20596;-35
2024/01/30 02:47:49;;;;;;;14.88;10.40;;;5.80;99.90;;;;;;5032728;28;20053;-35
2024/01/30 02:50:16;;;;;;;15.68;11.05;;;5.80;99.90;;;;;;5026168;28;20419;-35
2024/01/30 02:52:43;;;;;;;15.00;10.35;;;5.80;99.90;;;;;;5033940;28;20053;-35
2024/01/30 02:55:09;;;;;;;16.50;10.00;;;5.80;99.90;;;;;;5028608;28;20502;-35
2024/01/30 02:57:35;;;;;;;14.77;10.60;;;5.70;99.90;;;;;;5026329;28;20049;-34
2024/01/30 03:00:02;;;;;;;14.25;9.82;;;5.70;99.90;;;;;;5030308;28;20049;-34
2024/01/30 03:02:28;;;;;;;15.23;10.95;;;5.60;99.90;;;;;;5031153;28;20076;-34
2024/01/30 03:04:54;;;;;;;16.35;10.05;;;5.60;99.90;;;;;;5028859;28;20059;-34
2024/01/30 03:07:19;;;;;;;16.42;10.00;;;5.70;99.90;;;;;;5027243;28;20069;-34
2024/01/30 03:09:45;;;;;;;16.20;10.85;;;5.60;99.90;;;;;;5035507;28;20497;-34
2024/01/30 03:12:11;;;;;;;14.98;9.90;;;5.70;99.90;;;;;;5032480;28;20095;-36
2024/01/30 03:14:37;;;;;;;16.25;10.82;;;5.70;99.90;;;;;;5034430;28;20041;-35
2024/01/30 03:17:03;;;;;;;14.40;9.95;;;5.70;99.90;;;;;;5034133;28;20127;-35
2024/01/30 03:19:29;;;;;;;14.55;10.27;;;5.70;99.90;;;;;;5033025;28;20076;-34
2024/01/30 03:21:54;;;;;;;14.68;10.10;;;5.80;99.90;;;;;;5019554;28;20061;-35
2024/01/30 03:24:20;;;;;;;13.50;9.85;;;5.80;99.90;;;;;;5009627;28;20061;-35
2024/01/30 03:26:46;;;;;;;13.00;9.30;;;5.90;99.90;;;;;;5005179;28;20049;-35
2024/01/30 03:29:12;;;;;;;16.45;10.85;;;5.90;99.90;;;;;;5009935;28;20081;-35
2024/01/30 03:31:40;;;;;;;13.88;9.75;;;6.00;99.90;;;;;;5009643;28;20110;-35
2024/01/30 03:34:05;;;;;;;15.15;9.60;;;6.00;99.90;;;;;;5009953;28;20084;-35
2024/01/30 03:36:33;;;;;;;16.25;9.93;;;6.10;99.90;;;;;;5009646;28;20628;-34
2024/01/30 03:38:59;;;;;;;14.90;10.25;;;6.10;99.90;;;;;;5005135;28;20094;-34
2024/01/30 03:41:25;;;;;;;15.02;10.80;;;6.10;99.90;;;;;;5012563;28;20053;-35
2024/01/30 03:43:50;;;;;;;14.93;10.85;;;6.20;99.90;;;;;;5011820;28;20061;-35
2024/01/30 03:46:17;;;;;;;15.27;9.52;;;6.20;99.90;;;;;;5008897;28;20076;-35
2024/01/30 03:48:42;;;;;;;13.88;9.45;;;6.30;99.90;;;;;;5015955;28;20496;-36
2024/01/30 03:51:09;;;;;;;13.82;9.05;;;6.40;99.90;;;;;;4987621;28;20116;-36
2024/01/30 03:53:35;;;;;;;14.43;9.35;;;6.40;99.90;;;;;;5011442;28;20053;-35
2024/01/30 03:56:01;;;;;;;14.95;9.82;;;6.40;99.90;;;;;;5007941;28;20100;-35
2024/01/30 03:58:26;;;;;;;14.75;9.73;;;6.50;99.90;;;;;;5015566;28;20053;-35
2024/01/30 04:00:52;;;;;;;13.80;9.13;;;6.50;99.90;;;;;;5017064;28;20426;-35
2024/01/30 04:03:18;;;;;;;13.63;9.25;;;6.60;99.90;;;;;;5007328;28;20054;-35
2024/01/30 04:05:43;;;;;;;14.43;8.80;;;6.60;99.90;;;;;;5013908;28;20508;-35
2024/01/30 04:08:09;;;;;;;10.95;7.97;;;6.60;99.90;;;;;;5012078;28;20041;-34
2024/01/30 04:10:35;;;;;;;12.90;8.50;;;6.70;99.90;;;;;;5011180;28;20055;-35
2024/01/30 04:13:01;;;;;;;13.20;8.80;;;6.70;99.90;;;;;;5010808;28;20420;-35
2024/01/30 04:15:27;;;;;;;14.43;9.30;;;6.70;99.90;;;;;;5012134;28;20050;-35
2024/01/30 04:17:53;;;;;;;11.45;8.05;;;6.70;99.90;;;;;;5011290;28;20460;-35
2024/01/30 04:20:19;;;;;;;14.70;8.05;;;6.70;99.90;;;;;;5011078;28;20061;-34
2024/01/30 04:22:46;;;;;;;13.82;8.43;;;6.70;99.90;;;;;;5028974;28;20821;-35
2024/01/30 04:25:13;;;;;;;11.98;8.82;;;6.80;99.90;;;;;;5033071;28;20056;-35
2024/01/30 04:27:39;;;;;;;12.43;8.25;;;6.80;99.90;;;;;;5031372;28;20053;-35
2024/01/30 04:30:05;;;;;;;13.48;8.20;;;6.90;99.90;;;;;;5030868;28;20443;-35
2024/01/30 04:32:32;;;;;;;13.95;8.27;;;6.90;99.90;;;;;;5032239;28;20041;-35
2024/01/30 04:34:57;;;;;;;11.75;8.15;;;6.90;99.90;;;;;;5026906;28;20038;-35
2024/01/30 04:37:24;;;;;;;12.20;8.30;;;6.90;99.90;;;;;;5026684;28;20060;-35
2024/01/30 04:39:50;;;;;;;15.02;8.73;;;6.90;99.90;;;;;;5026476;28;20056;-35
2024/01/30 04:42:16;;;;;;;13.82;8.82;;;6.90;99.90;;;;;;5030130;28;20419;-35
2024/01/30 04:44:42;;;;;;;13.40;8.70;;;6.80;99.90;;;;;;5032282;28;20072;-35
2024/01/30 04:47:08;;;;;;;12.10;7.63;;;6.80;99.90;;;;;;5008289;28;20050;-34
2024/01/30 04:49:35;;;;;;;12.13;7.85;;;6.90;99.90;;;;;;5032439;28;20122;-35
2024/01/30 04:52:00;;;;;;;14.30;8.45;;;6.90;99.90;;;;;;5027535;28;20056;-35
2024/01/30 04:54:26;;;;;;;12.50;8.35;;;6.80;99.90;;;;;;5029814;28;20049;-35
2024/01/30 04:56:52;;;;;;;13.35;8.50;;;6.90;99.90;;;;;;5029084;28;20065;-35
2024/01/30 04:59:18;;;;;;;13.48;8.00;;;6.90;99.90;;;;;;5024518;28;20466;-35
2024/01/30 05:01:44;;;;;;;13.93;8.55;;;6.90;99.90;;;;;;5031858;28;20045;-35
2024/01/30 05:04:11;;;;;;;11.77;8.52;;;6.90;99.90;;;;;;5030121;28;20092;-34
2024/01/30 05:06:37;;;;;;;13.63;8.43;;;6.90;99.90;;;;;;5033198;28;20044;-35
2024/01/30 05:09:04;;;;;;;13.73;8.75;;;6.90;99.90;;;;;;5029721;28;20129;-34
2024/01/30 05:11:30;;;;;;;13.70;8.52;;;6.90;99.90;;;;;;5025406;28;20053;-34
2024/01/30 05:13:56;;;;;;;12.60;8.15;;;6.90;99.90;;;;;;5029411;28;20080;-34
2024/01/30 05:16:22;;;;;;;14.68;9.35;;;6.80;99.90;;;;;;5026180;28;20471;-35
2024/01/30 05:18:48;;;;;;;12.90;8.52;;;6.90;99.90;;;;;;5033948;28;20047;-34
2024/01/30 05:21:14;;;;;;;14.75;7.97;;;6.90;99.90;;;;;;5024104;28;20053;-35
2024/01/30 05:23:41;;;;;;;11.23;8.50;;;6.90;99.90;;;;;;5028493;28;20144;-34
2024/01/30 05:26:08;;;;;;;12.65;8.63;;;6.80;99.90;;;;;;5030579;28;20045;-35
2024/01/30 05:28:33;;;;;;;13.38;8.40;;;6.90;99.90;;;;;;5025546;28;20061;-35
2024/01/30 05:30:59;;;;;;;13.05;8.90;;;6.90;99.90;;;;;;5027022;28;20487;-34
2024/01/30 05:33:25;;;;;;;13.23;8.80;;;6.90;99.90;;;;;;5028026;28;20050;-34
2024/01/30 05:35:54;;;;;;;10.88;8.52;;;6.80;99.90;;;;;;5026528;28;20062;-36
2024/01/30 05:38:20;;;;;;;13.32;8.70;;;6.80;99.90;;;;;;5013080;28;20056;-35
2024/01/30 05:40:46;;;;;;;13.00;8.20;;;6.80;99.90;;;;;;5027163;28;20041;-35
2024/01/30 05:43:12;;;;;;;13.32;8.35;;;6.90;99.90;;;;;;5023792;28;20554;-34
2024/01/30 05:45:37;;;;;;;13.07;8.73;;;6.80;99.90;;;;;;5027757;28;20053;-35
2024/01/30 05:48:04;;;;;;;13.15;8.23;;;6.80;99.90;;;;;;5027380;28;20053;-35
2024/01/30 05:50:30;;;;;;;12.00;7.43;;;6.80;99.90;;;;;;5029324;28;20495;-35
2024/01/30 05:52:56;;;;;;;13.23;8.73;;;6.80;99.90;;;;;;5025888;28;20064;-35
2024/01/30 05:55:21;;;;;;;14.23;8.20;;;6.80;99.90;;;;;;5019590;28;20567;-35
2024/01/30 05:57:47;;;;;;;14.23;8.80;;;6.80;99.90;;;;;;5027188;28;20052;-35
2024/01/30 06:00:13;;;;;;;16.02;8.18;;;6.80;99.90;;;;;;5026175;28;20044;-34
2024/01/30 06:02:39;;;;;;;12.60;8.30;;;6.70;99.90;;;;;;5031773;28;20054;-34
2024/01/30 06:05:05;;;;;;;12.35;7.97;;;6.80;99.90;;;;;;5022650;28;20052;-34
2024/01/30 06:07:31;;;;;;;14.38;8.93;;;6.80;99.90;;;;;;5028295;28;20322;-35
2024/01/30 06:09:57;;;;;;;12.68;8.80;;;6.80;99.90;;;;;;5026022;28;20060;-35
2024/01/30 06:12:23;;;;;;;13.05;8.45;;;6.80;99.90;;;;;;5024969;28;20441;-34
2024/01/30 06:14:48;;;;;;;12.70;8.73;;;6.80;99.90;;;;;;5027424;28;20053;-35
2024/01/30 06:17:14;;;;;;;15.00;8.65;;;6.80;99.90;;;;;;5020952;28;20058;-35
2024/01/30 06:19:40;;;;;;;11.75;8.38;;;6.80;99.90;;;;;;5024583;28;20072;-34
2024/01/30 06:22:06;;;;;;;15.10;7.85;;;6.80;99.90;;;;;;5028388;28;20053;-35
2024/01/30 06:24:31;;;;;;;12.27;7.50;;;6.80;99.90;;;;;;5021293;28;21724;-35
2024/01/30 06:26:57;;;;;;;13.15;8.05;;;6.90;99.90;;;;;;5022231;28;20125;-35
2024/01/30 06:29:24;;;;;;;14.30;8.05;;;6.90;99.90;;;;;;5028712;28;20140;-35
2024/01/30 06:31:50;;;;;;;13.50;8.13;;;6.90;99.90;;;;;;5024151;28;20475;-35
2024/01/30 06:34:16;;;;;;;12.63;8.02;;;6.90;99.90;;;;;;5029232;28;20385;-35
2024/01/30 06:36:42;;;;;;;12.25;8.43;;;6.90;99.90;;;;;;5030671;28;20048;-35
2024/01/30 06:39:07;;;;;;;13.23;7.95;;;7.00;99.90;;;;;;5029698;28;20503;-35
2024/01/30 06:41:33;;;;;;;13.13;8.50;;;7.00;99.90;;;;;;5029901;28;20065;-35
2024/01/30 06:43:59;;;;;;;14.75;7.70;;;7.10;99.90;;;;;;5030694;28;20061;-35
2024/01/30 06:46:25;;;;;;;10.95;7.78;;;7.00;99.90;;;;;;5028005;28;20057;-35
2024/01/30 06:48:51;;;;;;;10.52;7.10;;;7.10;99.90;;;;;;5028699;28;20437;-35
2024/01/30 06:51:16;;;;;;;12.40;7.45;;;7.10;99.90;;;;;;5028239;28;20057;-42
2024/01/30 06:54:01;;;;;;;11.40;7.97;;;7.10;99.90;;;;;;5165662;22;20053;-34
2024/01/30 06:56:26;;;;;;;11.45;8.10;;;7.20;99.90;;;;;;5019014;28;20114;-36
2024/01/30 06:58:52;;;;;;;13.25;7.95;;;7.20;99.90;;;;;;5024612;28;20049;-35
2024/01/30 07:01:18;;;;;;;12.35;7.55;;;7.20;99.90;;;;;;5024908;28;20198;-35
2024/01/30 07:03:44;;;;;;;12.13;7.63;;;7.20;99.90;;;;;;5024829;28;20099;-35
2024/01/30 07:06:13;;;;;;;12.55;7.55;;;7.20;99.90;;;;;;5034489;28;20056;-35
2024/01/30 07:08:39;;;;;;;11.70;7.47;;;7.20;99.90;;;;;;5009256;28;20050;-35
2024/01/30 07:11:06;;;;;;;11.50;7.22;;;7.20;99.90;;;;;;5024642;28;20057;-35
2024/01/30 07:13:34;;;;;;;11.55;8.10;;;7.20;99.90;;;;;;5023565;28;20464;-35
2024/01/30 07:16:00;;;;;;;11.93;6.28;;;7.20;99.90;;;;;;5002010;28;20077;-35
2024/01/30 07:18:26;;;;;;;13.10;7.60;;;7.10;99.90;;;;;;5005540;28;20188;-35
2024/01/30 07:20:52;;;;;;;12.48;8.30;;;7.10;99.90;;;;;;5001178;28;20090;-35
2024/01/30 07:23:18;;;;;;;10.95;7.30;;;7.20;99.90;;;;;;5008470;28;20053;-36
2024/01/30 07:25:45;;;;;;;12.60;8.95;;;7.10;99.90;;;;;;5024899;28;20512;-35
2024/01/30 07:28:12;;;;;;;13.07;8.07;;;7.10;99.90;;;;;;5027185;28;20053;-36
2024/01/30 07:30:38;;;;;;;12.93;7.97;;;7.20;99.90;;;;;;5023381;28;20528;-36
2024/01/30 07:33:04;;;;;;;13.50;7.13;;;7.20;99.90;;;;;;5024573;28;20136;-36
2024/01/30 07:35:30;;;;;;;12.43;7.53;;;7.20;99.90;;;;;;5008487;28;21366;-35
2024/01/30 07:37:57;;;;;;;9.73;6.72;;;7.30;99.90;;;;;;5027982;28;20041;-34
2024/01/30 07:40:22;;;;;;;12.40;7.38;;;7.30;99.90;;;;;;5027295;28;20050;-36
2024/01/30 07:42:49;;;;;;;9.38;6.40;;;7.30;99.90;;;;;;5024182;28;20049;-36
2024/01/30 07:45:14;;;;;;;15.88;7.80;;;7.30;99.90;;;;;;5021593;28;20040;-34
2024/01/30 07:47:40;;;;;;;10.88;7.13;;;7.30;99.90;;;;;;5023365;28;20056;-40
2024/01/30 07:50:07;;;;;;;11.90;7.63;;;7.30;99.90;;;;;;5042124;28;20054;-35
2024/01/30 07:52:32;;;;;;;11.70;6.82;;;7.40;99.90;;;;;;5007184;28;20049;-35
2024/01/30 07:54:58;;;;;;;11.90;6.82;;;7.30;99.90;;;;;;5024225;28;20050;-35
2024/01/30 07:57:24;;;;;;;12.52;7.55;;;7.40;99.90;;;;;;5010974;28;20312;-41
2024/01/30 07:59:50;;;;;;;12.30;7.78;;;7.40;99.90;;;;;;5024656;28;20045;-36
2024/01/30 08:02:16;;;;;;;13.00;7.35;;;7.40;99.90;;;;;;4995960;28;20498;-39
2024/01/30 08:04:42;;;;;;;11.40;7.63;;;7.40;99.90;;;;;;5015200;28;20056;-34
2024/01/30 08:07:07;;;;;;;12.43;7.15;;;7.40;99.90;;;;;;5005477;28;20042;-35
2024/01/30 08:09:33;;;;;;;10.82;7.43;;;7.40;99.90;;;;;;5006355;28;20072;-37
2024/01/30 08:11:59;;;;;;;10.80;7.90;;;7.40;99.90;;;;;;5025467;28;20045;-37
2024/01/30 08:14:25;;;;;;;13.95;7.07;;;7.40;99.90;;;;;;5024293;28;20058;-36
2024/01/30 08:16:51;;;;;;;9.80;6.90;;;7.40;99.90;;;;;;5022567;28;20333;-36
2024/01/30 08:19:17;;;;;;;13.00;6.93;;;7.40;99.90;;;;;;5024625;28;20457;-35
2024/01/30 08:21:43;;;;;;;12.30;7.43;;;7.40;99.90;;;;;;5025058;28;20421;-35
2024/01/30 08:24:09;;;;;;;11.70;7.18;;;7.40;99.90;;;;;;5020732;28;20049;-34
2024/01/30 08:26:35;;;;;;;12.07;7.40;;;7.50;99.90;;;;;;5027656;28;20061;-34
2024/01/30 08:29:04;;;;;;;11.82;7.53;;;7.50;99.90;;;;;;5023430;28;21781;-36
2024/01/30 08:31:29;;;;;;;10.30;6.90;;;7.50;99.90;;;;;;5027139;28;20045;-34
2024/01/30 08:33:55;;;;;;;12.32;7.55;;;7.50;99.90;;;;;;5025408;28;20046;-35
2024/01/30 08:36:21;;;;;;;12.63;7.35;;;7.50;99.90;;;;;;5024813;28;20050;-36
2024/01/30 08:38:47;;;;;;;12.52;7.25;;;7.50;99.90;;;;;;5023338;28;20053;-35
2024/01/30 08:41:13;;;;;;;11.20;7.28;;;7.50;99.90;;;;;;5011065;28;20425;-35
2024/01/30 08:43:38;;;;;;;11.65;7.32;;;7.60;99.90;;;;;;5024843;28;20056;-35
2024/01/30 08:46:04;;;;;;;13.70;8.10;;;7.60;99.90;;;;;;5024034;28;20142;-36
2024/01/30 08:48:30;;;;;;;10.90;7.53;;;7.60;99.90;;;;;;5025879;28;20110;-36
2024/01/30 08:50:56;;;;;;;12.77;7.32;;;7.60;99.90;;;;;;5024565;28;20156;-35
2024/01/30 08:53:22;;;;;;;12.23;7.45;;;7.70;99.90;;;;;;4999984;28;20049;-35
2024/01/30 08:55:48;;;;;;;11.73;7.43;;;7.70;99.90;;;;;;4994868;28;20057;-36
2024/01/30 08:58:13;;;;;;;15.90;7.25;;;7.80;99.90;;;;;;5023711;28;20084;-35
2024/01/30 09:00:39;;;;;;;10.43;7.00;;;7.90;99.90;;;;;;5010686;28;20055;-36
2024/01/30 09:03:05;;;;;;;12.38;7.43;;;7.90;99.90;;;;;;4994862;28;21980;-36
2024/01/30 09:05:30;;;;;;;11.40;7.68;;;8.00;99.90;;;;;;5002727;28;20064;-35
2024/01/30 09:07:56;;;;;;;10.98;6.85;;;8.10;99.90;;;;;;5002318;28;20467;-34
2024/01/30 09:10:22;;;;;;;12.93;7.28;;;8.10;99.90;;;;;;5026443;28;20555;-34
2024/01/30 09:12:49;;;;;;;13.05;7.60;;;8.20;99.90;;;;;;5025249;28;20040;-35
2024/01/30 09:15:15;;;;;;;9.75;6.88;;;8.20;99.90;;;;;;5021639;28;20061;-34
2024/01/30 09:17:40;;;;;;;13.38;7.45;;;8.20;99.90;;;;;;5025533;28;20119;-35
2024/01/30 09:20:07;;;;;;;11.75;7.15;;;8.30;99.90;;;;;;5025993;28;20049;-35
2024/01/30 09:22:32;;;;;;;11.55;6.57;;;8.30;99.90;;;;;;5023848;28;21213;-35
2024/01/30 09:24:58;;;;;;;12.38;7.72;;;8.40;99.90;;;;;;5022894;28;20375;-35
2024/01/30 09:27:24;;;;;;;10.93;7.32;;;8.40;99.90;;;;;;5022729;28;20868;-36
2024/01/30 09:29:49;;;;;;;11.25;7.25;;;8.50;99.90;;;;;;5025210;28;20053;-36
2024/01/30 09:32:16;;;;;;;13.73;7.53;;;8.50;99.90;;;;;;5006117;28;20129;-35
2024/01/30 09:34:41;;;;;;;14.80;7.10;;;8.50;99.90;;;;;;5026120;28;20050;-35
2024/01/30 09:37:07;;;;;;;15.75;7.50;;;8.50;99.90;;;;;;5027344;28;20076;-35
2024/01/30 09:39:33;;;;;;;11.65;6.43;;;8.50;99.90;;;;;;5025835;28;20513;-35
2024/01/30 09:42:09;;;;;;;11.05;7.80;;;8.60;99.90;;;;;;5022594;28;20069;-35
2024/01/30 09:44:37;;;;;;;12.18;7.47;;;8.70;99.90;;;;;;5022161;28;20054;-35
2024/01/30 09:47:05;;;;;;;11.25;6.97;;;8.70;99.90;;;;;;5007499;28;20453;-35
2024/01/30 09:49:37;;;;;;;13.75;7.80;;;8.80;99.90;;;;;;5026543;28;20057;-35
2024/01/30 09:52:05;;;;;;;17.58;7.47;;;8.90;99.90;;;;;;5025263;28;20056;-35
2024/01/30 09:54:31;;;;;;;11.02;7.05;;;9.10;99.90;;;;;;5019588;28;20294;-35
2024/01/30 09:56:57;;;;;;;12.00;7.30;;;9.30;99.90;;;;;;5026170;28;20616;-35
2024/01/30 09:59:23;;;;;;;12.40;6.55;;;9.50;99.90;;;;;;5023506;28;20061;-34
2024/01/30 10:01:51;;;;;;;14.88;7.75;;;9.60;99.90;;;;;;5024553;28;20053;-34
2024/01/30 10:04:16;;;;;;;14.20;6.63;;;9.80;99.90;;;;;;5014955;28;20135;-36
2024/01/30 10:06:42;;;;;;;13.10;6.82;;;9.90;99.90;;;;;;5006082;28;20941;-35
2024/01/30 10:09:10;;;;;;;14.00;6.95;;;10.00;99.90;;;;;;5028266;28;21246;-35
2024/01/30 10:11:36;;;;;;;12.40;6.75;;;10.00;99.90;;;;;;5028277;28;20045;-35
2024/01/30 10:14:02;;;;;;;12.05;6.88;;;10.00;99.90;;;;;;5026966;28;20106;-35
2024/01/30 10:16:28;;;;;;;16.05;7.22;;;10.10;99.90;;;;;;5028856;28;20045;-35
2024/01/30 10:18:54;;;;;;;12.80;6.82;;;10.10;99.90;;;;;;5011408;28;20582;-34
2024/01/30 10:21:21;;;;;;;13.85;6.75;;;10.10;99.90;;;;;;5025857;28;20049;-35
2024/01/30 10:23:46;;;;;;;15.70;6.97;;;10.20;99.90;;;;;;5026009;28;20099;-35
2024/01/30 10:26:12;;;;;;;13.13;7.15;;;10.20;99.90;;;;;;5026179;28;20060;-35
2024/01/30 10:28:38;;;;;;;11.05;6.90;;;10.20;99.90;;;;;;5033476;28;20053;-35
2024/01/30 10:31:04;;;;;;;15.60;7.47;;;10.20;99.90;;;;;;5029081;28;20049;-34
2024/01/30 10:33:30;;;;;;;12.15;6.82;;;10.30;99.90;;;;;;5028117;28;20107;-36
2024/01/30 10:36:05;;;;;;;12.40;7.22;;;10.30;99.90;;;;;;5032282;28;20489;-35
2024/01/30 10:38:33;;;;;;;15.55;7.32;;;10.40;99.90;;;;;;5027753;28;20116;-35
2024/01/30 10:41:00;;;;;;;11.85;6.78;;;10.40;99.90;;;;;;5028129;28;20519;-34
2024/01/30 10:43:35;;;;;;;13.00;6.97;;;10.40;99.90;;;;;;5024326;28;20072;-35
2024/01/30 10:46:12;;;;;;;13.52;7.07;;;10.40;99.90;;;;;;5025828;28;20053;-38
2024/01/30 10:48:42;;;;;;;15.27;7.80;;;10.50;99.90;;;;;;5026285;28;20061;-39
2024/01/30 10:51:09;;;;;;;13.18;7.57;;;10.50;99.90;;;;;;5025074;28;20469;-35
2024/01/30 10:53:37;;;;;;;11.95;6.72;;;10.50;99.90;;;;;;5023676;28;20079;-35
2024/01/30 10:56:04;;;;;;;15.30;8.00;;;10.50;99.90;;;;;;5022929;28;20084;-34
2024/01/30 10:58:30;;;;;;;13.27;7.25;;;10.50;99.90;;;;;;5009056;28;20061;-36
2024/01/30 11:00:56;;;;;;;14.18;7.53;;;10.40;99.90;;;;;;5005609;28;20454;-35
2024/01/30 11:03:23;;;;;;;12.00;7.18;;;10.50;99.90;;;;;;5019798;28;20053;-35
2024/01/30 11:05:51;;;;;;;13.02;7.22;;;10.50;99.90;;;;;;5006788;28;20056;-37
2024/01/30 11:08:24;;;;;;;12.05;7.85;;;10.40;99.90;;;;;;5027896;28;20057;-35
2024/01/30 11:10:56;;;;;;;12.18;6.93;;;10.50;99.90;;;;;;5025252;28;21777;-35
2024/01/30 11:13:21;;;;;;;14.02;7.53;;;10.40;99.90;;;;;;5027706;28;20050;-35
2024/01/30 11:15:48;;;;;;;10.02;6.70;;;10.50;99.90;;;;;;5024721;28;20053;-35
2024/01/30 11:18:25;;;;;;;13.18;7.38;;;10.50;99.90;;;;;;5025942;28;20049;-35
2024/01/30 11:20:51;;;;;;;15.15;7.28;;;10.50;99.90;;;;;;5027101;28;20102;-35
2024/01/30 11:23:17;;;;;;;14.35;7.25;;;10.50;99.90;;;;;;5024099;28;20050;-35
2024/01/30 11:25:46;;;;;;;11.73;7.40;;;10.60;99.90;;;;;;5029442;28;20132;-35
2024/01/30 11:28:18;;;;;;;13.82;7.40;;;10.60;99.90;;;;;;5025305;28;20049;-36
2024/01/30 11:30:44;;;;;;;13.15;7.57;;;10.60;99.90;;;;;;5023280;28;20052;-36
2024/01/30 11:33:11;;;;;;;10.32;6.25;;;10.70;99.90;;;;;;5028100;28;20136;-36
2024/01/30 11:35:42;;;;;;;9.02;6.18;;;10.80;99.90;;;;;;5022778;28;20129;-36
2024/01/30 11:38:09;;;;;;;10.55;5.95;;;10.90;99.90;;;;;;5027202;28;20073;-36
2024/01/30 11:40:37;;;;;;;10.63;5.45;;;10.90;99.90;;;;;;5022907;28;20068;-35
2024/01/30 11:43:07;;;;;;;10.10;5.07;;;11.00;99.90;;;;;;5024634;28;20146;-36
2024/01/30 11:45:34;;;;;;;9.13;4.57;;;11.10;99.90;;;;;;5024396;28;20041;-36
2024/01/30 11:48:01;;;;;;;10.15;5.00;;;11.10;99.90;;;;;;5025714;28;20497;-36
2024/01/30 11:50:27;;;;;;;10.93;5.78;;;11.10;99.90;;;;;;5025101;28;20505;-36
2024/01/30 11:52:54;;;;;;;12.48;6.10;;;11.10;99.90;;;;;;5023129;28;20053;-35
2024/01/30 11:55:20;;;;;;;13.45;6.47;;;11.10;99.90;;;;;;5012482;28;20096;-36
2024/01/30 11:57:46;;;;;;;13.23;6.85;;;11.00;99.90;;;;;;5015031;28;20055;-36
2024/01/30 12:00:18;;;;;;;10.68;5.38;;;10.90;99.90;;;;;;5025635;28;20238;-36
2024/01/30 12:02:48;;;;;;;12.73;5.88;;;10.60;99.90;;;;;;5021722;28;20073;-36
2024/01/30 12:05:14;;;;;;;9.80;4.68;;;10.50;99.90;;;;;;5025852;28;20416;-35
2024/01/30 12:07:40;;;;;;;8.98;3.95;;;10.40;99.90;;;;;;5026228;28;20296;-34
2024/01/30 12:10:09;;;;;;;6.82;2.88;;;10.30;99.90;;;;;;5002404;28;20073;-35
2024/01/30 12:12:35;;;;;;;5.40;2.25;;;10.40;99.90;;;;;;5018682;28;20045;-35
2024/01/30 12:15:01;;;;;;;8.48;3.35;;;10.40;99.90;;;;;;5026186;28;20098;-35
2024/01/30 12:17:34;;;;;;;7.85;3.10;;;10.30;99.90;;;;;;5021418;28;20125;-35
2024/01/30 12:20:11;;;;;;;8.20;3.17;;;10.20;99.90;;;;;;5022751;28;20502;-35
2024/01/30 12:22:41;;;;;;;6.65;2.95;;;10.20;99.90;;;;;;5027177;28;20041;-35
2024/01/30 12:25:14;;;;;;;12.02;4.90;;;10.10;99.90;;;;;;5025446;28;20037;-36
2024/01/30 12:27:42;;;;;;;12.10;5.68;;;10.00;99.90;;;;;;5023329;28;20041;-37
2024/01/30 12:30:10;;;;;;;10.95;4.88;;;10.00;99.90;;;;;;5020440;28;20060;-35
2024/01/30 12:32:36;;;;;;;14.20;6.78;;;10.00;99.90;;;;;;5020939;28;20053;-35
2024/01/30 12:35:03;;;;;;;15.13;6.90;;;10.00;99.90;;;;;;5020975;28;20349;-35
2024/01/30 12:37:30;;;;;;;9.75;4.00;;;10.10;99.90;;;;;;5006704;28;20048;-35
2024/01/30 12:39:56;;;;;;;6.38;2.70;;;10.10;99.90;;;;;;5023850;28;20057;-35